»·PEaware :: N757PC KCNO-L35

N757PC :: KCNO-L35

FLIGHT INFORMATION

Flight Status: Arrived
Operator: Privately registered:
United States
More flights under this callsign
Pilot: Duane J. (9702)
Aircraft: CESSNA 172 SKYHAWK
(C172)
More flights by this aircraft type
Origin: KCNO Chino
United States
Destination: L35 Big Bear City
United States
More flights between these airports :: More routes between these airports
Route: +PDZ V442 APLES V386 OKACO
File this flight plan on PilotEdge
Remarks: IMC CONDITIOINS
Altitude:
(Current/Filed)
11,000ft
Speed:
(Current/Filed)
110kts
Departed: 10-Feb-19 08:16 PM
Arrived: 10-Feb-19 09:15 PM
Distance/Time
Traveled:
43nm/0:59
Distance/Time
To Go:
Arrived

Flight Plot

Page will automatically refresh every two minutes.

Flight plan parsing failed; only flown route is shown


Map Options




Map Legend


Flown Route
Filed Route
Departure Airport
Arrival Airport
Navaid (VOR, NDB)
Fix

Horizontal Profiles

Position Reports

Time Latitude Longitude Heading Altitude Ground
Speed
10-Feb-19 19:56 33.978651 -117.635246 314 655ft 0kts
10-Feb-19 19:57 33.978652 -117.635246 314 655ft 0kts
10-Feb-19 19:58 33.978654 -117.635249 315 655ft 0kts
10-Feb-19 19:59 33.978656 -117.635252 315 655ft 0kts
10-Feb-19 20:00 33.978659 -117.635254 315 655ft 0kts
10-Feb-19 20:01 33.978661 -117.635257 315 655ft 0kts
10-Feb-19 20:02 33.978663 -117.635260 315 655ft 0kts
10-Feb-19 20:03 33.978666 -117.635263 315 655ft 0kts
10-Feb-19 20:04 33.978668 -117.635266 315 655ft 0kts
10-Feb-19 20:05 33.978671 -117.635269 315 655ft 0kts
10-Feb-19 20:06 33.978673 -117.635272 315 655ft 0kts
10-Feb-19 20:07 33.978676 -117.635275 315 655ft 0kts
10-Feb-19 20:08 33.978678 -117.635278 315 655ft 0kts
10-Feb-19 20:09 33.978681 -117.635281 315 655ft 0kts
10-Feb-19 20:10 33.978683 -117.635284 315 655ft 0kts
10-Feb-19 20:11 33.977437 -117.635688 211 655ft 11kts
10-Feb-19 20:12 33.976930 -117.632997 89 655ft 16kts
10-Feb-19 20:13 33.976617 -117.630865 177 655ft 0kts
10-Feb-19 20:14 33.976559 -117.630863 179 655ft 5kts
10-Feb-19 20:15 33.976314 -117.643453 272 910ft 82kts
10-Feb-19 20:16 33.980228 -117.672833 275 1864ft 78kts
10-Feb-19 20:17 33.980368 -117.700877 270 2735ft 83kts
10-Feb-19 20:18 33.986936 -117.721916 290 3506ft 78kts
10-Feb-19 20:19 33.969513 -117.719056 125 4318ft 106kts
10-Feb-19 20:20 33.960858 -117.683568 109 5031ft 112kts
10-Feb-19 20:21 33.951269 -117.647386 112 5715ft 113kts
10-Feb-19 20:22 33.941300 -117.611462 114 6398ft 112kts
10-Feb-19 20:23 33.931377 -117.575938 115 7097ft 111kts
10-Feb-19 20:24 33.921535 -117.540742 115 7791ft 110kts
10-Feb-19 20:25 33.939308 -117.518128 10 8410ft 103kts
10-Feb-19 20:26 33.965948 -117.501674 13 8938ft 110kts
10-Feb-19 20:27 33.996519 -117.483206 14 8992ft 126kts
10-Feb-19 20:28 34.028018 -117.464251 14 9001ft 127kts
10-Feb-19 20:29 34.059717 -117.445192 15 8999ft 128kts
10-Feb-19 20:30 34.091627 -117.425999 15 8997ft 127kts
10-Feb-19 20:31 34.123397 -117.406880 15 9001ft 127kts
10-Feb-19 20:32 34.155267 -117.387690 15 9002ft 127kts
10-Feb-19 20:33 34.186353 -117.368908 15 9382ft 116kts
10-Feb-19 20:34 34.213957 -117.352273 11 9867ft 107kts
10-Feb-19 20:35 34.240193 -117.336453 8 10351ft 103kts
10-Feb-19 20:36 34.265699 -117.321049 4 10841ft 101kts
10-Feb-19 20:37 34.292734 -117.304787 7 10985ft 114kts
10-Feb-19 20:38 34.320570 -117.287857 6 10990ft 111kts
10-Feb-19 20:39 34.348247 -117.271104 6 10988ft 111kts
10-Feb-19 20:40 34.375892 -117.254357 6 10988ft 111kts
10-Feb-19 20:41 34.403702 -117.237493 6 10982ft 112kts
10-Feb-19 20:42 34.431949 -117.220355 7 10951ft 113kts
10-Feb-19 20:43 34.460097 -117.203249 7 10948ft 112kts
10-Feb-19 20:44 34.488226 -117.186155 7 10948ft 112kts
10-Feb-19 20:45 34.516232 -117.169122 7 10948ft 112kts
10-Feb-19 20:46 34.544204 -117.151888 13 10948ft 116kts
10-Feb-19 20:47 34.545384 -117.108664 100 10951ft 144kts
10-Feb-19 20:48 34.540115 -117.060342 95 10938ft 144kts
10-Feb-19 20:49 34.535421 -117.011731 95 10931ft 145kts
10-Feb-19 20:50 34.530788 -116.963504 96 10943ft 144kts
10-Feb-19 20:51 34.526113 -116.914944 96 10939ft 144kts
10-Feb-19 20:52 34.521423 -116.866448 97 10934ft 145kts
10-Feb-19 20:53 34.516698 -116.817783 97 10928ft 145kts
10-Feb-19 20:54 34.511943 -116.769024 97 10921ft 146kts
10-Feb-19 20:55 34.507156 -116.720132 97 10919ft 146kts
10-Feb-19 20:56 34.497078 -116.674744 165 10914ft 123kts
10-Feb-19 20:57 34.467368 -116.664702 178 10919ft 116kts
10-Feb-19 20:58 34.437135 -116.652214 181 10915ft 114kts
10-Feb-19 20:59 34.406900 -116.640226 182 10911ft 114kts
10-Feb-19 21:00 34.376802 -116.628354 182 10910ft 113kts
10-Feb-19 21:01 34.346640 -116.616463 182 10910ft 113kts
10-Feb-19 21:02 34.316657 -116.604666 182 10907ft 114kts
10-Feb-19 21:03 34.284303 -116.592055 177 10517ft 136kts
10-Feb-19 21:05 34.264579 -116.608721 273 9781ft 92kts
10-Feb-19 21:06 34.264577 -116.638869 267 9298ft 80kts
10-Feb-19 21:07 34.264395 -116.666907 268 8888ft 87kts
10-Feb-19 21:08 34.264318 -116.696597 268 8588ft 84kts
10-Feb-19 21:09 34.264249 -116.724603 268 8575ft 82kts
10-Feb-19 21:10 34.264185 -116.750334 268 8523ft 69kts
10-Feb-19 21:11 34.264114 -116.772156 267 8144ft 62kts
10-Feb-19 21:12 34.264044 -116.795556 267 7725ft 71kts
10-Feb-19 21:13 34.263969 -116.817670 269 7339ft 61kts
10-Feb-19 21:14 34.263862 -116.837935 267 6981ft 60kts
10-Feb-19 21:15 34.263844 -116.854112 268 6751ft 20kts
10-Feb-19 21:16 34.263113 -116.856023 90 6751ft 13kts
10-Feb-19 21:17 34.262371 -116.853345 72 6751ft 0kts

Navigation Log

Ident Type
Flight plan parsing failed, navigation log unavailable